Jennifer — WDF6480 — position and weather

sailwx.info

Track history (hours):
 
Tides and Currents Weather Stations Pressure Air Temp Water Temp Dewpoint Dewpoint Depression Visibility Wind Speed Wind Dir Waves Ship Positions

Jennifer

Owner: John W. Stone Oil Distributor, L.L.C., Gretna, LA. More information available from US FCC via Universal Licensing System and Coast Guard Vessel Documentation Center.

Last reported at 2015-Apr-19 14:20 UTC. Time now 2015-Apr-19 19:10 UTC.
Position N 29°52' W 090°04'.

Length 17 m; draft 3 m.

Type: Tug. MMSI: 367474690.

Date/timePositionNaut miles runAvg speedWind from/ knotsBaromVisibWave heightAir tempDewpointWater temp
2015-Apr-19 14:20N 29°52' W 090°04'3 3.8
2015-Apr-19 13:33N 29°54' W 090°05'0 0.3
2015-Apr-19 12:32N 29°55' W 090°05'1 1.2
2015-Apr-19 11:32N 29°55' W 090°04'0 0.0
2015-Apr-19 10:28N 29°55' W 090°04'0 0.0
2015-Apr-19 09:32N 29°55' W 090°04'0 0.0
2015-Apr-19 08:31N 29°55' W 090°04'0 0.0
2015-Apr-19 07:27N 29°55' W 090°04'0 0.1
2015-Apr-19 06:33N 29°55' W 090°04'0 0.0
2015-Apr-19 05:28N 29°55' W 090°04'0 0.3
2015-Apr-19 04:21N 29°56' W 090°04'0 0.0
2015-Apr-18 11:13N 29°56' W 090°04'0 0.2
2015-Apr-18 10:30N 29°56' W 090°04'3 2.6
2015-Apr-18 09:19N 29°56' W 089°60'2 1.4
2015-Apr-18 08:09N 29°56' W 089°58'5 2.8
2015-Apr-18 06:32N 29°56' W 090°03'1 0.6
2015-Apr-18 05:33N 29°55' W 090°04'0 0.5
2015-Apr-18 04:33N 29°56' W 090°03'1 0.5
2015-Apr-18 03:33N 29°55' W 090°04'1 0.7
2015-Apr-18 02:31N 29°56' W 090°03'4 4.0
2015-Apr-18 01:33N 29°55' W 090°07'3 0.1
2015-Apr-17 00:23N 29°55' W 090°04'1 1.1
2015-Apr-16 23:32N 29°56' W 090°03'  
2015-Apr-12 01:23N 29°55' W 089°57'5 6.4
2015-Apr-12 00:33N 29°55' W 090°04'0 0.0
2015-Apr-11 23:28N 29°55' W 090°04'0 0.0
2015-Apr-11 22:28N 29°55' W 090°04'0 0.0
2015-Apr-11 18:16N 29°55' W 090°04'0 0.0
2015-Apr-11 17:31N 29°55' W 090°04'0 0.0
2015-Apr-11 16:33N 29°55' W 090°04'0 0.1
2015-Apr-11 15:33N 29°56' W 090°04'3 2.7
2015-Apr-11 14:33N 29°57' W 090°01'1 0.5
2015-Apr-11 13:13N 29°56' W 090°00'0 0.0
2015-Apr-11 12:19N 29°56' W 090°00'0 0.0
2015-Apr-11 11:25N 29°56' W 090°00'0 0.0
2015-Apr-11 10:33N 29°56' W 090°00'0 0.0
2015-Apr-11 09:32N 29°56' W 090°00'3 1.1
2015-Apr-11 06:32N 29°55' W 090°04'0 0.0
2015-Apr-11 05:31N 29°55' W 090°04'1 1.0
2015-Apr-11 04:31N 29°55' W 090°05'0 0.0
2015-Apr-11 03:32N 29°55' W 090°05'2 1.5
2015-Apr-11 02:32N 29°56' W 090°04'1 0.9
2015-Apr-11 01:32N 29°57' W 090°03'  
Track history (hours):
 
Tides and Currents Weather Stations Pressure Air Temp Water Temp Dewpoint Dewpoint Depression Visibility Wind Speed Wind Dir Waves Ship Positions

Jennifer

Owner: John W. Stone Oil Distributor, L.L.C., Gretna, LA. More information available from US FCC via Universal Licensing System and Coast Guard Vessel Documentation Center.

Last reported at 2015-Apr-19 14:20 UTC. Time now 2015-Apr-19 19:10 UTC.
Position N 29°52' W 090°04'.

Length 17 m; draft 3 m.

Type: Tug. MMSI: 367474690.

Date/timePositionNaut miles runAvg speedWind from/ knotsBaromVisibWave heightAir tempDewpointWater temp
2015-Apr-19 14:20N 29°52' W 090°04'3 3.8
2015-Apr-19 13:33N 29°54' W 090°05'0 0.3
2015-Apr-19 12:32N 29°55' W 090°05'1 1.2
2015-Apr-19 11:32N 29°55' W 090°04'0 0.0
2015-Apr-19 10:28N 29°55' W 090°04'0 0.0
2015-Apr-19 09:32N 29°55' W 090°04'0 0.0
2015-Apr-19 08:31N 29°55' W 090°04'0 0.0
2015-Apr-19 07:27N 29°55' W 090°04'0 0.1
2015-Apr-19 06:33N 29°55' W 090°04'0 0.0
2015-Apr-19 05:28N 29°55' W 090°04'0 0.3
2015-Apr-19 04:21N 29°56' W 090°04'0 0.0
2015-Apr-18 11:13N 29°56' W 090°04'0 0.2
2015-Apr-18 10:30N 29°56' W 090°04'3 2.6
2015-Apr-18 09:19N 29°56' W 089°60'2 1.4
2015-Apr-18 08:09N 29°56' W 089°58'5 2.8
2015-Apr-18 06:32N 29°56' W 090°03'1 0.6
2015-Apr-18 05:33N 29°55' W 090°04'0 0.5
2015-Apr-18 04:33N 29°56' W 090°03'1 0.5
2015-Apr-18 03:33N 29°55' W 090°04'1 0.7
2015-Apr-18 02:31N 29°56' W 090°03'4 4.0
2015-Apr-18 01:33N 29°55' W 090°07'3 0.1
2015-Apr-17 00:23N 29°55' W 090°04'1 1.1
2015-Apr-16 23:32N 29°56' W 090°03'  
2015-Apr-12 01:23N 29°55' W 089°57'5 6.4
2015-Apr-12 00:33N 29°55' W 090°04'0 0.0
2015-Apr-11 23:28N 29°55' W 090°04'0 0.0
2015-Apr-11 22:28N 29°55' W 090°04'0 0.0
2015-Apr-11 18:16N 29°55' W 090°04'0 0.0
2015-Apr-11 17:31N 29°55' W 090°04'0 0.0
2015-Apr-11 16:33N 29°55' W 090°04'0 0.1
2015-Apr-11 15:33N 29°56' W 090°04'3 2.7
2015-Apr-11 14:33N 29°57' W 090°01'1 0.5
2015-Apr-11 13:13N 29°56' W 090°00'0 0.0
2015-Apr-11 12:19N 29°56' W 090°00'0 0.0
2015-Apr-11 11:25N 29°56' W 090°00'0 0.0
2015-Apr-11 10:33N 29°56' W 090°00'0 0.0
2015-Apr-11 09:32N 29°56' W 090°00'3 1.1
2015-Apr-11 06:32N 29°55' W 090°04'0 0.0
2015-Apr-11 05:31N 29°55' W 090°04'1 1.0
2015-Apr-11 04:31N 29°55' W 090°05'0 0.0
2015-Apr-11 03:32N 29°55' W 090°05'2 1.5
2015-Apr-11 02:32N 29°56' W 090°04'1 0.9
2015-Apr-11 01:32N 29°57' W 090°03'  

Dump ship's entire track history